Time;durP1;ratioP1;P1;durP2;ratioP2;P2;SDS_P1;SDS_P2;PMS_P1;PMS_P2;Temp;Humidity;BMP_temperature;BMP_pressure;BME280_temperature;BME280_humidity;BME280_pressure;Samples;Min_cycle;Max_cycle;Signal;HPM_P1;HPM_P2
2022/10/02 00:00:37;;;;;;;7.10;1.55;;;;;;;12.94;100.00;99000.56;5027988;28;20036;-62
2022/10/02 00:03:13;;;;;;;12.48;1.73;;;;;;;12.85;100.00;98994.53;5022659;28;20033;-62
2022/10/02 00:05:43;;;;;;;4.40;1.20;;;;;;;12.82;100.00;98999.56;5029496;28;20033;-62
2022/10/02 00:08:15;;;;;;;10.25;1.33;;;;;;;12.76;100.00;99006.69;5017676;28;21869;-62
2022/10/02 00:10:47;;;;;;;9.95;1.27;;;;;;;12.72;100.00;99016.28;5023581;28;20255;-62
2022/10/02 00:13:36;;;;;;;12.32;1.70;;;;;;;12.73;100.00;99015.22;5026116;28;20048;-62
2022/10/02 00:16:04;;;;;;;5.80;1.58;;;;;;;12.69;100.00;99024.88;5027659;28;20033;-62
2022/10/02 00:18:33;;;;;;;8.05;1.35;;;;;;;12.65;100.00;99024.47;5034253;28;20033;-62
2022/10/02 00:21:14;;;;;;;8.27;1.48;;;;;;;12.67;100.00;99041.34;5047778;28;20369;-62
2022/10/02 00:23:47;;;;;;;6.40;1.60;;;;;;;12.65;100.00;99050.75;5024392;28;20109;-61
2022/10/02 00:26:25;;;;;;;3.78;1.00;;;;;;;12.63;100.00;99045.56;5026423;28;20556;-61
2022/10/02 00:29:23;;;;;;;4.13;0.93;;;;;;;12.52;100.00;99050.75;5031341;28;20026;-61
2022/10/02 00:32:09;;;;;;;10.30;1.42;;;;;;;12.46;100.00;99042.41;5030447;28;20029;-61
2022/10/02 00:34:53;;;;;;;7.80;1.48;;;;;;;12.44;100.00;99047.25;5036388;28;20444;-61
2022/10/02 00:37:45;;;;;;;13.05;1.65;;;;;;;12.38;100.00;99050.78;5023788;28;20052;-62
2022/10/02 00:40:46;;;;;;;9.02;1.77;;;;;;;12.33;100.00;99050.56;5026576;28;20369;-61
2022/10/02 00:43:46;;;;;;;16.77;1.63;;;;;;;12.30;100.00;99061.84;5040072;28;20390;-62
2022/10/02 00:46:30;;;;;;;12.52;1.52;;;;;;;12.27;100.00;99059.53;5043426;28;20031;-63
2022/10/02 00:49:33;;;;;;;4.72;1.27;;;;;;;12.29;100.00;99049.31;5030659;28;20116;-62
2022/10/02 00:52:12;;;;;;;12.30;1.60;;;;;;;12.30;100.00;99063.72;5050355;28;20033;-62
2022/10/02 00:55:10;;;;;;;8.40;1.70;;;;;;;12.30;100.00;99050.97;5035710;28;20040;-63
2022/10/02 00:57:48;;;;;;;10.13;2.00;;;;;;;12.25;100.00;99059.75;5032870;28;20033;-62
2022/10/02 01:00:16;;;;;;;6.45;1.45;;;;;;;12.25;100.00;99064.34;5014541;28;20061;-62
2022/10/02 01:03:06;;;;;;;11.77;1.55;;;;;;;12.28;100.00;99070.16;5036741;28;20021;-61
2022/10/02 01:05:33;;;;;;;5.95;1.73;;;;;;;12.29;100.00;99079.16;5013509;28;20033;-61
2022/10/02 01:07:59;;;;;;;9.90;1.50;;;;;;;12.21;100.00;99084.81;5025734;28;20250;-61
2022/10/02 01:10:27;;;;;;;7.93;1.58;;;;;;;12.19;100.00;99087.72;5030702;28;20136;-61
2022/10/02 01:12:54;;;;;;;11.60;1.83;;;;;;;12.18;100.00;99090.63;5031708;28;20061;-61
2022/10/02 01:15:26;;;;;;;11.18;2.00;;;;;;;12.20;100.00;99092.06;5029275;28;20025;-61
2022/10/02 01:17:52;;;;;;;12.15;1.80;;;;;;;12.22;100.00;99089.16;5027098;28;20358;-61
2022/10/02 01:20:23;;;;;;;11.48;2.15;;;;;;;12.11;100.00;99089.78;5028475;28;20033;-61
2022/10/02 01:23:10;;;;;;;9.30;1.92;;;;;;;12.12;100.00;99100.41;5028447;28;20052;-61
2022/10/02 01:25:35;;;;;;;11.13;2.05;;;;;;;12.11;100.00;99097.94;5023465;28;20472;-61
2022/10/02 01:28:01;;;;;;;5.82;1.55;;;;;;;12.12;100.00;99096.88;5032188;28;20059;-61
2022/10/02 01:30:29;;;;;;;9.70;2.85;;;;;;;12.06;100.00;99093.94;5036934;28;20025;-61
2022/10/02 01:32:57;;;;;;;12.70;3.08;;;;;;;12.05;100.00;99094.13;5028230;28;21883;-61
2022/10/02 01:35:26;;;;;;;7.13;2.35;;;;;;;11.92;100.00;99078.69;5030641;28;20057;-61
2022/10/02 01:37:54;;;;;;;10.93;2.10;;;;;;;11.94;100.00;99100.16;5024719;28;20488;-61
2022/10/02 01:40:33;;;;;;;6.03;2.08;;;;;;;11.92;100.00;99116.66;5027814;28;20038;-61
2022/10/02 01:43:03;;;;;;;9.75;2.03;;;;;;;11.89;100.00;99098.06;5027797;28;20112;-61
2022/10/02 01:46:10;;;;;;;9.80;2.33;;;;;;;11.88;100.00;99098.28;5025455;28;20060;-61
2022/10/02 01:49:06;;;;;;;11.00;1.83;;;;;;;11.91;100.00;99101.41;5023229;28;20061;-61
2022/10/02 01:52:04;;;;;;;7.85;1.90;;;;;;;11.90;100.00;99104.34;5022138;28;20032;-61
2022/10/02 01:54:39;;;;;;;4.60;1.83;;;;;;;11.87;100.00;99105.59;5041487;28;20037;-61
2022/10/02 01:57:17;;;;;;;7.00;2.30;;;;;;;11.86;100.00;99103.91;5034006;28;20021;-61
2022/10/02 02:00:19;;;;;;;10.38;2.08;;;;;;;11.81;100.00;99084.66;5028805;28;20065;-61
2022/10/02 02:03:01;;;;;;;8.13;2.15;;;;;;;11.82;100.00;99098.03;4955515;28;20038;-61
2022/10/02 02:05:47;;;;;;;9.40;1.90;;;;;;;11.76;100.00;99098.00;5014484;28;21949;-61
2022/10/02 02:08:51;;;;;;;9.27;1.95;;;;;;;11.74;100.00;99106.34;5031683;28;20053;-61
2022/10/02 02:11:21;;;;;;;7.40;1.77;;;;;;;11.75;100.00;99101.75;5016649;28;20123;-61
2022/10/02 02:13:59;;;;;;;12.25;1.70;;;;;;;11.73;100.00;99099.25;5023593;28;20053;-61
2022/10/02 02:16:46;;;;;;;11.60;1.80;;;;;;;11.75;100.00;99102.59;5024150;28;20083;-61
2022/10/02 02:19:28;;;;;;;7.80;1.60;;;;;;;11.71;100.00;99097.78;5028868;28;20028;-61
2022/10/02 02:21:57;;;;;;;12.48;1.80;;;;;;;11.72;100.00;99099.47;5030231;28;20036;-61
2022/10/02 02:24:33;;;;;;;7.22;1.63;;;;;;;11.75;100.00;99091.75;5033002;28;20131;-61
2022/10/02 02:27:03;;;;;;;6.38;1.52;;;;;;;11.78;100.00;99093.22;5025647;28;20037;-61
2022/10/02 02:29:30;;;;;;;;;;;;;;;11.76;100.00;99098.00;5031829;28;20040;-61
2022/10/02 02:31:58;;;;;;;6.25;1.63;;;;;;;11.78;100.00;99098.63;5032294;28;19909;-61
2022/10/02 02:34:32;;;;;;;8.55;2.10;;;;;;;11.75;100.00;99093.63;5025132;28;20487;-61
2022/10/02 02:37:03;;;;;;;9.18;1.77;;;;;;;11.79;100.00;99092.19;5017225;28;20033;-61
2022/10/02 02:39:41;;;;;;;5.55;1.60;;;;;;;11.78;100.00;99088.63;5027983;28;20021;-61
2022/10/02 02:42:10;;;;;;;9.02;1.58;;;;;;;11.74;100.00;99079.25;5027389;28;20032;-61
2022/10/02 02:45:02;;;;;;;13.57;2.00;;;;;;;11.90;100.00;99091.63;5034299;28;20031;-61
2022/10/02 02:47:39;;;;;;;9.13;1.50;;;;;;;11.91;100.00;99093.28;5030975;28;20030;-61
2022/10/02 02:50:11;;;;;;;5.30;2.10;;;;;;;11.93;100.00;99093.91;5038167;28;20104;-61
2022/10/02 02:52:42;;;;;;;6.47;1.65;;;;;;;11.97;100.00;99105.19;5031882;28;20032;-61
2022/10/02 02:55:18;;;;;;;7.38;1.60;;;;;;;11.97;100.00;99087.06;5028098;28;20033;-61
2022/10/02 02:57:56;;;;;;;6.55;1.60;;;;;;;11.92;100.00;99100.38;5031417;28;20057;-61
2022/10/02 03:00:23;;;;;;;5.75;1.42;;;;;;;11.97;100.00;99092.47;5023601;28;20448;-61
2022/10/02 03:02:53;;;;;;;7.43;1.50;;;;;;;11.95;100.00;99083.72;5026284;28;20033;-61
2022/10/02 03:05:19;;;;;;;12.20;1.77;;;;;;;11.91;100.00;99096.00;5028130;28;20067;-61
2022/10/02 03:07:58;;;;;;;10.75;1.77;;;;;;;11.94;100.00;99095.56;5030977;28;20025;-61
2022/10/02 03:10:58;;;;;;;14.03;1.80;;;;;;;11.94;100.00;99100.16;5024188;28;20018;-61
2022/10/02 03:14:00;;;;;;;7.03;1.60;;;;;;;11.93;100.00;99099.34;5027028;28;20523;-61
2022/10/02 03:16:47;;;;;;;6.32;1.73;;;;;;;11.90;100.00;99094.34;5028932;28;20033;-61
2022/10/02 03:19:39;;;;;;;12.10;2.40;;;;;;;11.87;100.00;99099.31;5027213;28;20028;-61
2022/10/02 03:22:35;;;;;;;8.63;1.90;;;;;;;11.85;100.00;99094.91;5017466;28;20176;-61
2022/10/02 03:25:13;;;;;;;4.53;2.15;;;;;;;11.90;100.00;99097.03;5024237;28;20033;-61
2022/10/02 03:28:10;;;;;;;6.15;2.28;;;;;;;11.90;100.00;99101.63;5030653;28;20177;-61
2022/10/02 03:30:38;;;;;;;15.27;2.63;;;;;;;11.81;100.00;99093.63;5039737;28;20049;-61
2022/10/02 03:33:06;;;;;;;7.85;1.58;;;;;;;11.87;100.00;99099.31;5023468;28;20408;-61
2022/10/02 03:35:32;;;;;;;9.38;1.90;;;;;;;11.85;100.00;99091.38;5024285;28;20053;-61
2022/10/02 03:38:10;;;;;;;4.05;1.55;;;;;;;11.86;100.00;99093.06;5032195;28;20120;-61
2022/10/02 03:40:35;;;;;;;5.18;2.38;;;;;;;11.87;100.00;99085.75;5033530;28;20029;-61
2022/10/02 03:43:01;;;;;;;16.02;1.98;;;;;;;11.87;100.00;99089.31;5034715;28;20025;-61
2022/10/02 03:45:27;;;;;;;11.57;2.38;;;;;;;11.94;100.00;99090.16;5029550;28;20514;-61
2022/10/02 03:47:53;;;;;;;11.07;2.42;;;;;;;11.94;100.00;99100.16;5027039;28;20421;-61
2022/10/02 03:50:20;;;;;;;7.22;1.30;;;;;;;11.91;100.00;99111.44;5024023;28;20112;-61
2022/10/02 03:52:47;;;;;;;13.65;1.40;;;;;;;11.92;100.00;99103.09;5032580;28;20029;-61
2022/10/02 03:55:31;;;;;;;7.75;1.63;;;;;;;11.87;100.00;99111.00;5033840;28;20024;-61
2022/10/02 03:57:58;;;;;;;8.93;1.60;;;;;;;11.84;100.00;99111.38;5052625;28;20021;-61
2022/10/02 04:00:34;;;;;;;7.07;1.52;;;;;;;11.89;100.00;99124.34;5028379;28;20029;-62
2022/10/02 04:03:38;;;;;;;10.88;1.65;;;;;;;11.86;100.00;99120.16;5033089;28;20053;-61
2022/10/02 04:06:12;;;;;;;6.07;1.40;;;;;;;11.84;100.00;99122.22;5031545;28;20493;-60
2022/10/02 04:08:49;;;;;;;6.05;1.63;;;;;;;11.82;100.00;99113.47;5039710;28;20033;-60
2022/10/02 04:11:32;;;;;;;6.30;2.88;;;;;;;11.88;100.00;99118.09;5029234;28;20041;-60
2022/10/02 04:14:18;;;;;;;9.90;3.53;;;;;;;11.87;100.00;99111.00;5027779;28;20307;-61
2022/10/02 04:17:07;;;;;;;7.95;2.90;;;;;;;11.81;100.00;99115.31;5028701;28;20376;-61
2022/10/02 04:19:38;;;;;;;12.05;2.17;;;;;;;11.78;100.00;99117.59;5028831;28;20025;-61
2022/10/02 04:22:10;;;;;;;12.30;2.15;;;;;;;11.82;100.00;99110.75;5039426;28;20061;-61
2022/10/02 04:24:49;;;;;;;10.80;1.88;;;;;;;11.77;100.00;99097.81;5026355;28;20025;-61
2022/10/02 04:27:19;;;;;;;12.55;2.60;;;;;;;11.82;100.00;99110.75;5028478;28;20865;-61
2022/10/02 04:29:49;;;;;;;;;;;;;;;11.77;100.00;99114.06;5031724;28;20034;-60
2022/10/02 04:32:21;;;;;;;11.07;1.98;;;;;;;11.76;100.00;99109.69;5024425;28;19909;-61
2022/10/02 04:34:46;;;;;;;12.30;2.30;;;;;;;11.82;100.00;99114.28;5030461;28;20042;-61
2022/10/02 04:37:46;;;;;;;8.25;2.55;;;;;;;11.81;100.00;99114.50;5029637;28;20173;-61
2022/10/02 04:40:37;;;;;;;12.30;2.00;;;;;;;11.78;100.00;99104.88;5028920;28;20017;-60
2022/10/02 04:43:11;;;;;;;8.20;1.80;;;;;;;11.79;100.00;99116.59;5031491;28;20025;-60
2022/10/02 04:46:02;;;;;;;8.73;1.50;;;;;;;11.82;100.00;99108.03;5030169;28;20536;-60
2022/10/02 04:48:30;;;;;;;10.65;2.17;;;;;;;11.81;100.00;99109.06;5043309;28;20472;-60
2022/10/02 04:51:23;;;;;;;12.02;2.47;;;;;;;11.84;100.00;99117.66;5028371;28;20026;-60
2022/10/02 04:53:55;;;;;;;14.38;2.75;;;;;;;11.83;100.00;99121.38;5026335;28;20470;-60
2022/10/02 04:56:47;;;;;;;12.43;2.47;;;;;;;11.83;100.00;99124.09;5032290;28;20025;-60
2022/10/02 04:59:57;;;;;;;8.75;2.08;;;;;;;11.88;100.00;99134.38;5038467;28;20052;-60
2022/10/02 05:02:57;;;;;;;12.30;1.88;;;;;;;11.94;100.00;99125.41;4995076;28;20041;-60
2022/10/02 05:05:23;;;;;;;5.22;1.73;;;;;;;11.94;100.00;99125.41;5028216;28;20037;-60
2022/10/02 05:07:57;;;;;;;10.70;2.00;;;;;;;11.98;100.00;99123.13;5036049;28;20480;-60
2022/10/02 05:10:41;;;;;;;7.35;1.60;;;;;;;12.00;100.00;99116.47;5033620;28;20068;-60
2022/10/02 05:13:45;;;;;;;9.77;1.90;;;;;;;11.96;100.00;99122.50;5044688;28;20033;-60
2022/10/02 05:16:30;;;;;;;14.35;2.20;;;;;;;11.93;100.00;99114.78;4978409;28;20415;-60
2022/10/02 05:19:39;;;;;;;8.82;2.08;;;;;;;11.91;100.00;99123.09;5027156;28;20029;-60
2022/10/02 05:22:10;;;;;;;10.32;1.77;;;;;;;11.91;100.00;99117.69;5030900;28;20033;-59
2022/10/02 05:27:35;;;;;;;11.13;1.77;;;;;;;11.91;100.00;99109.53;5043953;28;20064;-59
2022/10/02 05:30:15;;;;;;;8.20;1.63;;;;;;;11.89;100.00;99118.94;5030457;28;20037;-59
2022/10/02 05:33:16;;;;;;;5.57;1.50;;;;;;;11.90;100.00;99116.03;5030260;28;20021;-62
2022/10/02 05:35:48;;;;;;;11.73;1.58;;;;;;;11.85;100.00;99113.06;4955401;28;20042;-62
2022/10/02 05:38:17;;;;;;;13.27;2.08;;;;;;;11.84;100.00;99124.91;5000208;28;20068;-62
2022/10/02 05:40:45;;;;;;;13.25;1.63;;;;;;;11.86;100.00;99128.31;5011549;28;20038;-62
2022/10/02 05:43:13;;;;;;;9.88;1.70;;;;;;;11.84;100.00;99124.91;5012810;28;20053;-63
2022/10/02 05:45:45;;;;;;;7.43;1.20;;;;;;;11.82;100.00;99121.59;5007893;28;20117;-63
2022/10/02 05:48:25;;;;;;;7.53;1.30;;;;;;;11.82;100.00;99117.00;5015524;28;20515;-63
2022/10/02 05:51:17;;;;;;;7.43;1.55;;;;;;;11.81;100.00;99122.63;5001061;28;20038;-62
2022/10/02 05:53:49;;;;;;;6.93;1.20;;;;;;;11.82;100.00;99108.03;5004871;28;20033;-62
2022/10/02 05:56:17;;;;;;;9.18;1.20;;;;;;;11.79;100.00;99103.88;5013151;28;20116;-62
2022/10/02 05:58:57;;;;;;;7.22;1.35;;;;;;;11.77;100.00;99115.94;5013512;28;20076;-62
2022/10/02 06:01:28;;;;;;;3.25;0.93;;;;;;;11.80;100.00;99131.81;5032930;28;20502;-62
2022/10/02 06:04:21;;;;;;;8.75;1.40;;;;;;;11.69;100.00;99135.09;5014133;28;20029;-63
2022/10/02 06:06:53;;;;;;;4.53;1.00;;;;;;;11.65;100.00;99131.94;5030796;28;20113;-63
2022/10/02 06:09:21;;;;;;;6.05;1.23;;;;;;;11.66;100.00;99146.31;5015443;28;20017;-63
2022/10/02 06:12:25;;;;;;;6.97;1.10;;;;;;;11.67;100.00;99142.59;5011486;28;20052;-64
2022/10/02 06:15:14;;;;;;;4.68;1.52;;;;;;;11.72;100.00;99134.69;4971686;28;20045;-64
2022/10/02 06:20:25;;;;;;;6.03;1.40;;;;;;;11.72;100.00;99137.41;5088140;22;20042;-74
2022/10/02 06:23:11;;;;;;;5.90;1.10;;;;;;;11.77;100.00;99141.19;5045676;28;20030;-74
2022/10/02 06:25:43;;;;;;;5.60;1.10;;;;;;;11.71;100.00;99133.00;5048741;28;20044;-74
2022/10/02 06:28:18;;;;;;;9.05;1.10;;;;;;;11.73;100.00;99123.63;5054768;28;20033;-73
2022/10/02 06:30:48;;;;;;;8.43;1.23;;;;;;;11.71;100.00;99133.88;5041511;28;20101;-73
2022/10/02 06:33:24;;;;;;;4.47;1.08;;;;;;;11.75;100.00;99129.69;5032710;28;20457;-75
2022/10/02 06:36:24;;;;;;;5.22;0.90;;;;;;;11.74;100.00;99124.50;5034854;28;20029;-77
2022/10/02 06:39:16;;;;;;;6.95;1.33;;;;;;;11.71;100.00;99108.63;5021042;28;20093;-75
2022/10/02 06:42:01;;;;;;;9.38;1.20;;;;;;;11.79;100.00;99124.72;5026722;28;20044;-77
2022/10/02 06:44:58;;;;;;;2.42;1.05;;;;;;;11.81;100.00;99137.00;5024044;28;20133;-75
2022/10/02 06:48:04;;;;;;;7.80;1.30;;;;;;;11.88;100.00;99137.06;5026124;28;20471;-75
2022/10/02 06:50:36;;;;;;;9.77;1.85;;;;;;;11.95;100.00;99134.41;5028031;28;20021;-74
2022/10/02 06:53:16;;;;;;;4.82;1.80;;;;;;;11.93;100.00;99142.72;5029438;28;20496;-75
2022/10/02 06:56:12;;;;;;;8.55;1.25;;;;;;;11.88;100.00;99134.38;5031146;28;20036;-75
2022/10/02 06:58:54;;;;;;;8.50;1.60;;;;;;;11.80;100.00;99096.56;5030842;28;20045;-76
2022/10/02 07:01:57;;;;;;;7.88;1.38;;;;;;;11.94;100.00;99122.69;5027073;28;20048;-75
2022/10/02 07:04:50;;;;;;;8.38;1.55;;;;;;;11.96;100.00;99119.78;5027579;28;20040;-76
2022/10/02 07:07:39;;;;;;;8.73;2.28;;;;;;;11.96;100.00;99119.78;5025188;28;20025;-68
2022/10/02 07:10:11;;;;;;;8.30;2.13;;;;;;;12.02;100.00;99098.09;5026663;28;20056;-69
2022/10/02 07:13:00;;;;;;;6.60;2.60;;;;;;;12.09;100.00;99100.84;5024605;28;20695;-69
2022/10/02 07:15:40;;;;;;;7.25;2.45;;;;;;;12.07;100.00;99109.16;5021306;28;20037;-71
2022/10/02 07:18:38;;;;;;;7.03;2.72;;;;;;;12.03;100.00;99110.63;5028025;28;20026;-76
2022/10/02 07:21:08;;;;;;;7.40;2.53;;;;;;;12.05;100.00;99097.72;5022228;28;20041;-76
2022/10/02 07:23:44;;;;;;;8.45;2.33;;;;;;;12.07;100.00;99083.91;5023942;28;20092;-76
2022/10/02 07:26:44;;;;;;;10.75;3.53;;;;;;;12.18;100.00;99096.03;5029163;28;20108;-76
2022/10/02 07:29:16;;;;;;;8.63;4.10;;;;;;;12.16;100.00;99081.88;5031764;28;20383;-76
2022/10/02 07:31:57;;;;;;;13.27;2.75;;;;;;;12.18;100.00;99085.19;5036111;28;20053;-76
2022/10/02 07:34:41;;;;;;;9.48;3.15;;;;;;;12.32;100.00;99075.22;5031448;28;20857;-76
2022/10/02 07:37:25;;;;;;;8.38;3.60;;;;;;;12.27;100.00;99067.69;5033412;28;20041;-75
2022/10/02 07:40:02;;;;;;;11.27;4.32;;;;;;;12.41;100.00;99058.50;5045123;28;20546;-75
2022/10/02 07:42:52;;;;;;;7.30;3.30;;;;;;;12.32;100.00;99067.06;5043283;28;20036;-74
2022/10/02 07:45:37;;;;;;;10.10;3.20;;;;;;;12.20;100.00;99062.25;5028607;28;20032;-71
2022/10/02 07:48:35;;;;;;;7.90;2.47;;;;;;;12.28;100.00;99082.91;5026739;28;20548;-74
2022/10/02 07:51:48;;;;;;;6.40;2.92;;;;;;;12.31;100.00;99078.94;5033485;28;20033;-74
2022/10/02 07:54:29;;;;;;;8.48;2.40;;;;;;;12.39;100.00;99076.88;5009831;28;20239;-72
2022/10/02 07:57:00;;;;;;;6.68;2.60;;;;;;;12.46;100.00;99064.13;5034702;28;20033;-71
2022/10/02 07:59:30;;;;;;;6.13;2.60;;;;;;;12.54;100.00;99073.09;5029531;28;20040;-74
2022/10/02 08:01:57;;;;;;;4.43;1.85;;;;;;;12.54;100.00;99057.66;5029589;28;20486;-74
2022/10/02 08:04:32;;;;;;;5.40;2.50;;;;;;;12.58;100.00;99058.91;5029543;28;20029;-67
2022/10/02 08:07:01;;;;;;;6.35;2.95;;;;;;;12.63;100.00;99061.84;5029174;28;20060;-67
2022/10/02 08:09:31;;;;;;;7.07;3.50;;;;;;;12.69;100.00;99049.31;5029014;28;20036;-68
2022/10/02 08:12:22;;;;;;;7.47;3.35;;;;;;;12.67;100.00;99060.34;5030559;28;20072;-68
2022/10/02 08:14:54;;;;;;;7.55;2.38;;;;;;;12.62;100.00;99067.47;5027656;28;20055;-68
2022/10/02 08:17:38;;;;;;;5.47;2.55;;;;;;;12.49;100.00;99071.00;5029451;28;20036;-68
2022/10/02 08:20:14;;;;;;;9.50;2.40;;;;;;;12.40;100.00;99067.69;5022626;28;20464;-69
2022/10/02 08:22:45;;;;;;;4.93;2.00;;;;;;;12.33;100.00;99064.13;5019827;28;20033;-69
2022/10/02 08:25:21;;;;;;;10.05;2.50;;;;;;;12.41;100.00;99054.94;5018836;28;20390;-69
2022/10/02 08:28:10;;;;;;;8.50;1.80;;;;;;;12.44;100.00;99046.38;5028543;28;20104;-67
2022/10/02 08:30:36;;;;;;;7.18;2.10;;;;;;;12.37;100.00;99035.56;5028430;28;21284;-75
2022/10/02 08:33:04;;;;;;;4.05;1.55;;;;;;;12.42;100.00;99043.91;5026214;28;20124;-69
2022/10/02 08:35:53;;;;;;;3.95;1.50;;;;;;;12.42;100.00;99032.22;5031346;28;20029;-69
2022/10/02 08:38:40;;;;;;;3.38;1.27;;;;;;;12.35;100.00;99045.78;5026527;28;20396;-69
2022/10/02 08:41:40;;;;;;;6.32;1.95;;;;;;;12.38;100.00;99039.91;5031190;28;20136;-74
2022/10/02 08:44:30;;;;;;;6.78;1.85;;;;;;;12.49;100.00;99039.28;5032955;28;20519;-74
2022/10/02 08:47:01;;;;;;;8.80;1.92;;;;;;;12.46;100.00;99031.56;5029929;28;20041;-73
2022/10/02 08:49:38;;;;;;;8.25;2.63;;;;;;;12.40;100.00;99048.69;5030967;28;20044;-76
2022/10/02 08:52:28;;;;;;;4.93;2.85;;;;;;;12.47;100.00;99038.69;5030809;28;20057;-74
2022/10/02 08:55:24;;;;;;;8.98;2.35;;;;;;;12.42;100.00;99053.91;5040473;28;20025;-74
2022/10/02 08:58:02;;;;;;;7.72;2.42;;;;;;;12.45;100.00;99059.75;5025369;28;20035;-74
2022/10/02 09:01:05;;;;;;;6.90;2.50;;;;;;;12.46;100.00;99063.28;5028008;28;20475;-73
2022/10/02 09:03:50;;;;;;;5.07;1.90;;;;;;;12.42;100.00;99073.75;5016498;28;20049;-73
2022/10/02 09:06:50;;;;;;;4.75;1.88;;;;;;;12.42;100.00;99075.63;5029150;28;20025;-76
2022/10/02 09:09:53;;;;;;;8.30;1.65;;;;;;;12.44;100.00;99073.53;5027503;28;20034;-75
2022/10/02 09:12:34;;;;;;;8.10;2.00;;;;;;;12.45;100.00;99073.31;5030046;28;20053;-75
2022/10/02 09:15:16;;;;;;;6.35;1.83;;;;;;;12.47;100.00;99068.53;5029717;28;20041;-75
2022/10/02 09:18:30;;;;;;;5.90;2.05;;;;;;;12.54;100.00;99056.81;5020082;28;20033;-74
2022/10/02 09:21:11;;;;;;;6.32;1.60;;;;;;;12.79;100.00;99049.69;5024419;28;20033;-75
2022/10/02 09:24:01;;;;;;;4.75;1.65;;;;;;;12.88;100.00;99040.28;5027500;28;20091;-74
2022/10/02 09:27:00;;;;;;;5.40;2.00;;;;;;;13.00;100.00;99028.78;5026562;28;20033;-75
2022/10/02 09:30:03;;;;;;;4.68;2.50;;;;;;;13.01;100.00;99041.28;5021368;28;20029;-75
2022/10/02 09:32:55;;;;;;;9.02;4.13;;;;;;;12.98;100.00;99031.69;5021182;28;20094;-70
2022/10/02 09:35:35;;;;;;;8.20;3.35;;;;;;;13.09;100.00;99032.91;5024555;28;20032;-70
2022/10/02 09:38:31;;;;;;;8.48;2.75;;;;;;;13.02;100.00;99051.09;5032573;28;20040;-70
2022/10/02 09:41:38;;;;;;;6.20;2.50;;;;;;;13.04;100.00;99055.28;5030461;28;20102;-71
2022/10/02 09:44:12;;;;;;;2.38;1.20;;;;;;;13.13;100.00;99043.13;5018233;28;20048;-71
2022/10/02 09:47:18;;;;;;;1.38;0.40;;;;;;;13.19;100.00;99021.59;5025432;28;20346;-71
2022/10/02 09:50:16;;;;;;;1.98;0.55;;;;;;;13.24;100.00;99010.91;5037993;28;20022;-70
2022/10/02 09:52:56;;;;;;;1.42;0.60;;;;;;;13.39;100.00;99003.34;5024562;28;20035;-70
2022/10/02 09:55:41;;;;;;;1.45;0.32;;;;;;;13.53;100.00;98990.53;5016846;28;20033;-71
2022/10/02 09:58:31;;;;;;;1.13;0.55;;;;;;;13.54;100.00;98997.63;5033837;28;20029;-71
2022/10/02 10:01:21;;;;;;;1.80;0.40;;;;;;;13.43;100.00;99007.28;5026457;28;20117;-70
2022/10/02 10:04:02;;;;;;;0.80;0.30;;;;;;;13.54;100.00;99003.06;5025723;28;20021;-71
2022/10/02 10:06:49;;;;;;;0.50;0.38;;;;;;;13.47;100.00;99022.13;5023218;28;20387;-71
2022/10/02 10:09:39;;;;;;;0.77;0.30;;;;;;;13.44;100.00;99032.59;5027561;28;20037;-70
2022/10/02 10:12:13;;;;;;;0.95;0.60;;;;;;;13.37;100.00;99030.75;5026387;28;20042;-71
2022/10/02 10:14:47;;;;;;;1.13;0.25;;;;;;;13.36;100.00;99026.38;5036185;28;20036;-70
2022/10/02 10:17:29;;;;;;;2.05;0.30;;;;;;;13.47;100.00;99013.16;5028413;28;20037;-70
2022/10/02 10:20:05;;;;;;;0.30;0.20;;;;;;;13.55;100.00;98993.88;5038544;28;20033;-70
2022/10/02 10:23:06;;;;;;;0.35;0.22;;;;;;;13.52;100.00;99016.06;5041382;28;20040;-70
2022/10/02 10:25:34;;;;;;;0.73;0.30;;;;;;;13.37;100.00;99029.91;5034349;28;20036;-70
2022/10/02 10:28:22;;;;;;;0.63;0.30;;;;;;;13.20;100.00;99032.22;5026119;28;20036;-71
2022/10/02 10:31:10;;;;;;;0.43;0.20;;;;;;;13.21;100.00;99038.53;5028429;28;20036;-70
2022/10/02 10:33:41;;;;;;;0.47;0.25;;;;;;;13.18;100.00;99037.06;5031395;28;20120;-70
2022/10/02 10:39:49;;;;;;;0.68;0.20;;;;;;;13.16;100.00;99034.56;5029634;28;20037;-71
2022/10/02 10:42:33;;;;;;;0.38;0.30;;;;;;;13.30;100.00;99026.38;5031694;28;20636;-70
2022/10/02 10:45:40;;;;;;;0.30;0.20;;;;;;;13.59;100.00;99016.81;5035549;28;20045;-70
2022/10/02 10:48:32;;;;;;;0.32;0.13;;;;;;;13.49;100.00;99005.59;5025214;28;20029;-70
2022/10/02 10:51:20;;;;;;;0.38;0.20;;;;;;;13.44;100.00;99013.56;5036531;28;20049;-70
2022/10/02 10:54:17;;;;;;;0.28;0.20;;;;;;;13.48;100.00;99020.25;5039391;28;20035;-70
2022/10/02 10:56:48;;;;;;;0.77;0.20;;;;;;;13.54;100.00;99031.06;5046598;28;20100;-70
2022/10/02 10:59:41;;;;;;;2.67;0.90;;;;;;;13.54;100.00;99041.94;5033559;28;20016;-71
2022/10/02 11:02:39;;;;;;;9.43;3.45;;;;;;;13.49;100.00;99038.19;5026331;28;20076;-70
2022/10/02 11:05:15;;;;;;;7.68;1.90;;;;;;;13.49;100.00;99043.63;5012383;28;20049;-70
2022/10/02 11:07:43;;;;;;;3.13;1.42;;;;;;;13.45;100.00;99028.84;5024163;28;20138;-70
2022/10/02 11:10:11;;;;;;;5.68;3.13;;;;;;;13.41;100.00;99047.44;5026357;28;20538;-70
2022/10/02 11:13:00;;;;;;;4.37;2.50;;;;;;;13.45;100.00;99048.69;5025867;28;20072;-70
2022/10/02 11:16:06;;;;;;;2.65;1.60;;;;;;;13.40;100.00;99043.06;5019656;28;20026;-70
2022/10/02 11:18:46;;;;;;;0.90;0.55;;;;;;;13.31;100.00;99056.06;5019291;28;20390;-70
2022/10/02 11:21:46;;;;;;;0.90;0.32;;;;;;;13.38;100.00;99065.00;5026980;28;20433;-71
2022/10/02 11:24:25;;;;;;;0.90;0.30;;;;;;;13.49;100.00;99051.78;5026991;28;20057;-70
2022/10/02 11:27:24;;;;;;;1.50;0.70;;;;;;;13.33;100.00;99062.09;5023158;28;20045;-71
2022/10/02 11:30:08;;;;;;;0.60;0.57;;;;;;;13.37;100.00;99060.63;5022682;28;20136;-70
2022/10/02 11:32:50;;;;;;;0.45;0.40;;;;;;;13.45;100.00;99037.00;5021631;28;20098;-70
2022/10/02 11:35:47;;;;;;;1.10;0.60;;;;;;;13.51;100.00;99028.78;5022867;28;20017;-70
2022/10/02 11:38:47;;;;;;;1.20;0.70;;;;;;;13.73;100.00;99006.72;5018128;28;20029;-70
2022/10/02 11:41:42;;;;;;;2.33;1.35;;;;;;;13.52;100.00;99018.78;5023296;28;20033;-70
2022/10/02 11:45:03;;;;;;;4.28;2.15;;;;;;;13.51;100.00;99033.38;5030917;28;20044;-70
2022/10/02 11:47:59;;;;;;;3.50;2.00;;;;;;;13.69;100.00;99022.63;4962605;28;20027;-70
2022/10/02 11:50:24;;;;;;;0.25;0.20;;;;;;;13.77;100.00;99025.09;5022784;28;20026;-70
2022/10/02 11:52:58;;;;;;;5.03;1.80;;;;;;;13.67;100.00;99032.88;5025302;28;20025;-70
2022/10/02 11:55:51;;;;;;;0.82;0.60;;;;;;;13.82;100.00;99027.16;5023074;28;20102;-70
2022/10/02 11:59:00;;;;;;;1.20;0.88;;;;;;;13.95;100.00;99042.56;5033603;28;20032;-70
2022/10/02 12:01:44;;;;;;;0.90;0.43;;;;;;;14.03;100.00;99034.97;5024374;28;20467;-70
2022/10/02 12:04:39;;;;;;;1.20;0.40;;;;;;;13.75;100.00;99038.09;5022633;28;20037;-70
2022/10/02 12:07:21;;;;;;;0.30;0.20;;;;;;;13.94;100.00;99024.59;5028611;28;20038;-70
2022/10/02 12:10:14;;;;;;;0.17;0.10;;;;;;;14.07;100.00;99013.59;5023288;28;20025;-70
2022/10/02 12:13:09;;;;;;;0.35;0.30;;;;;;;14.09;100.00;99013.38;5018997;28;20095;-70
2022/10/02 12:15:50;;;;;;;0.30;0.20;;;;;;;14.11;100.00;99003.09;5026297;28;20029;-70
2022/10/02 12:18:31;;;;;;;0.10;0.10;;;;;;;13.93;100.00;98998.41;5023286;28;20037;-70
2022/10/02 12:27:37;;;;;;;0.00;0.00;;;;;;;14.51;100.00;98995.41;5026013;28;20175;-70
2022/10/02 12:30:15;;;;;;;0.30;0.10;;;;;;;14.44;100.00;98997.38;5023308;28;20238;-70
2022/10/02 12:33:18;;;;;;;0.00;0.00;;;;;;;14.27;100.00;99021.59;5027245;28;20096;-70
2022/10/02 12:36:11;;;;;;;0.25;0.10;;;;;;;14.14;100.00;99022.53;4937784;28;20117;-69
2022/10/02 12:39:06;;;;;;;0.20;0.20;;;;;;;14.05;100.00;99031.19;5025278;28;20050;-70
2022/10/02 12:41:47;;;;;;;0.20;0.20;;;;;;;13.71;100.00;99036.03;5031101;28;20017;-70
2022/10/02 12:44:36;;;;;;;0.85;0.10;;;;;;;13.76;100.00;99041.63;5031176;28;20025;-70
2022/10/02 12:47:31;;;;;;;0.10;0.10;;;;;;;13.62;100.00;99026.44;4993708;28;20053;-70
2022/10/02 12:50:06;;;;;;;0.28;0.10;;;;;;;13.68;100.00;99034.56;5018274;28;20659;-70